• Join FlightAware (Why Join?)
  • Login
  • US Flag 
07:25AM EDT


 

Airport Tracker/Info


-or-


 

Live Flight TrackerFlight Track Log ✈ EJA729 ✈ 27-Jun-2013 ✈ KPTK - KPIT

Flight Track Log - Related Links

Times and Time Zones

All times are in EDT time to prevent confusion due to time zone crossing. See the EJA729 flight status page for this flight to view local times or setup timezone preferences in your user account.

Time Position Orientation Groundspeed Altitude Reporting Facility
EDT Latitude Longitude Course Direction KTS MPH feet Rate Location/Type
08:33PM 42.6675 -83.3986 60° Northeast 171 197 2,100  Level Cleveland Center
08:34PM 42.6964 -83.3292 60° Northeast 244 281 4,900 3,360 Climbing Cleveland Center
08:36PM 42.6511 -83.1156 106° East 274 315 13,400 3,420 Climbing Cleveland Center
08:37PM 42.5658 -83.0189 140° Southeast 325 374 16,300 1,800 Climbing Cleveland Center
08:38PM 42.4861 -82.9314 141° Southeast 369 425 17,000 300 Climbing Cleveland Center
08:39PM 42.3925 -82.8267 140° Southeast 411 473 17,000  Level Cleveland Center
08:40PM 42.3006 -82.7253 141° Southeast 428 493 17,000  Level Cleveland Center
08:41PM 42.2108 -82.6239 140° Southeast 428 493 17,000  Level Cleveland Center
08:43PM 42.1226 -82.4541 125° Southeast  Level FlightAware Approximate
08:44PM 42.0125 -82.2375 125° Southeast 418 481 17,000  Level Cleveland Center
08:45PM 41.9500 -82.0881 119° Southeast 424 488 17,000  Level Cleveland Center
08:46PM 41.8914 -81.9472 119° Southeast 424 488 17,000  Level Cleveland Center
08:47PM 41.8325 -81.8094 120° Southeast 424 488 17,000  Level Cleveland Center
08:48PM 41.7794 -81.6914 121° Southeast 424 488 17,000  Level Cleveland Center
08:49PM 41.7161 -81.5650 124° Southeast 419 482 17,000 -300 Level Cleveland Center
08:50PM 41.6272 -81.4664 140° Southeast 407 468 16,400 -840 Descending Cleveland Center
08:51PM 41.5361 -81.3653 140° Southeast 425 489 15,400 -1,020 Descending Cleveland Center
08:52PM 41.4389 -81.2589 141° Southeast 425 489 14,400 -1,080 Descending Cleveland Center
08:53PM 41.3539 -81.1667 141° Southeast 409 471 13,300 -720 Descending Cleveland Center
08:54PM 41.2689 -81.0722 140° Southeast 404 465 13,000 -180 Descending Cleveland Center
08:55PM 41.1817 -80.9775 141° Southeast 404 465 13,000  Level Cleveland Center
08:56PM 41.0986 -80.8833 139° Southeast 399 459 13,000 -60 Level Cleveland Center
08:57PM 41.0133 -80.7867 139° Southeast 399 459 12,900 -900 Descending Cleveland Center
08:58PM 40.9300 -80.6986 141° Southeast 394 453 11,200 -1,500 Descending Cleveland Center
08:59PM 40.8719 -80.6353 140° Southeast 375 432 10,000 -900 Descending Cleveland Center
09:00PM 40.7906 -80.5475 141° Southeast 348 400 9,400 -1,380 Descending Cleveland Center
09:01PM 40.7217 -80.4736 141° Southeast 338 389 7,300 -1,740 Descending Cleveland Center
09:02PM 40.6569 -80.4025 140° Southeast 319 367 6,000 -900 Descending Cleveland Center
09:03PM 40.6067 -80.3178 128° Southeast 299 344 5,600 -1,260 Descending Cleveland Center
09:04PM 40.5669 -80.2114 116° Southeast 291 335 3,500 -1,500 Descending Cleveland Center
09:05PM 40.5228 -80.1517 134° Southeast 264 304 2,700 -600 Descending Cleveland Center
09:06PM 40.4792 -80.1328 162° South 196 226 2,300 -540 Descending Cleveland Center
09:07PM 40.4583 -80.1767 238° Southwest 122 140 1,700 -600 Descending Cleveland Center
09:09PM 40.4833 -80.2167 282° West  Level FlightAware Approximate